sensor_id;sensor_type;location;lat;lon;timestamp;temperature;humidity
23591;DHT22;11973;52.098;7.582;2022-12-17T00:01:48;-5.00;99.90
23591;DHT22;11973;52.098;7.582;2022-12-17T00:04:32;-5.00;99.90
23591;DHT22;11973;52.098;7.582;2022-12-17T00:07:17;-5.00;99.90
23591;DHT22;11973;52.098;7.582;2022-12-17T00:10:01;-5.00;99.90
23591;DHT22;11973;52.098;7.582;2022-12-17T00:12:46;-5.00;99.90
23591;DHT22;11973;52.098;7.582;2022-12-17T00:15:31;-5.00;99.90
23591;DHT22;11973;52.098;7.582;2022-12-17T00:18:15;-5.00;99.90
23591;DHT22;11973;52.098;7.582;2022-12-17T00:21:00;-5.00;99.90
23591;DHT22;11973;52.098;7.582;2022-12-17T00:23:45;-5.00;99.90
23591;DHT22;11973;52.098;7.582;2022-12-17T00:26:30;-5.00;99.90
23591;DHT22;11973;52.098;7.582;2022-12-17T00:29:14;-5.00;99.90
23591;DHT22;11973;52.098;7.582;2022-12-17T00:31:59;-5.00;99.90
23591;DHT22;11973;52.098;7.582;2022-12-17T00:34:44;-5.10;99.90
23591;DHT22;11973;52.098;7.582;2022-12-17T00:37:29;-5.10;99.90
23591;DHT22;11973;52.098;7.582;2022-12-17T00:40:13;-5.10;99.90
23591;DHT22;11973;52.098;7.582;2022-12-17T00:43:08;-5.10;99.90
23591;DHT22;11973;52.098;7.582;2022-12-17T00:45:52;-5.10;99.90
23591;DHT22;11973;52.098;7.582;2022-12-17T00:48:36;-5.10;99.90
23591;DHT22;11973;52.098;7.582;2022-12-17T00:51:21;-5.10;99.90
23591;DHT22;11973;52.098;7.582;2022-12-17T00:54:05;-5.10;99.90
23591;DHT22;11973;52.098;7.582;2022-12-17T00:56:50;-5.10;99.90
23591;DHT22;11973;52.098;7.582;2022-12-17T00:59:34;-5.10;99.90
23591;DHT22;11973;52.098;7.582;2022-12-17T01:02:21;-5.00;99.90
23591;DHT22;11973;52.098;7.582;2022-12-17T01:05:06;-5.00;99.90
23591;DHT22;11973;52.098;7.582;2022-12-17T01:07:50;-5.00;99.90
23591;DHT22;11973;52.098;7.582;2022-12-17T01:10:35;-5.00;99.90
23591;DHT22;11973;52.098;7.582;2022-12-17T01:13:22;-5.00;99.90
23591;DHT22;11973;52.098;7.582;2022-12-17T01:16:09;-5.00;99.90
23591;DHT22;11973;52.098;7.582;2022-12-17T01:18:55;-5.00;99.90
23591;DHT22;11973;52.098;7.582;2022-12-17T01:21:40;-5.00;99.90
23591;DHT22;11973;52.098;7.582;2022-12-17T01:24:25;-5.00;99.90
23591;DHT22;11973;52.098;7.582;2022-12-17T01:27:09;-4.90;99.90
23591;DHT22;11973;52.098;7.582;2022-12-17T01:29:55;-4.90;99.90
23591;DHT22;11973;52.098;7.582;2022-12-17T01:32:41;-4.90;99.90
23591;DHT22;11973;52.098;7.582;2022-12-17T01:35:25;-4.90;99.90
23591;DHT22;11973;52.098;7.582;2022-12-17T01:38:16;-4.90;99.90
23591;DHT22;11973;52.098;7.582;2022-12-17T01:41:01;-4.90;99.90
23591;DHT22;11973;52.098;7.582;2022-12-17T01:43:46;-4.90;99.90
23591;DHT22;11973;52.098;7.582;2022-12-17T01:46:35;-4.90;99.90
23591;DHT22;11973;52.098;7.582;2022-12-17T01:49:24;-4.90;99.90
23591;DHT22;11973;52.098;7.582;2022-12-17T01:52:11;-4.90;99.90
23591;DHT22;11973;52.098;7.582;2022-12-17T01:54:56;-5.00;99.90
23591;DHT22;11973;52.098;7.582;2022-12-17T01:57:41;-4.90;99.90
23591;DHT22;11973;52.098;7.582;2022-12-17T02:00:26;-4.90;99.90
23591;DHT22;11973;52.098;7.582;2022-12-17T02:03:17;-4.90;99.90
23591;DHT22;11973;52.098;7.582;2022-12-17T02:06:17;-4.90;99.90
23591;DHT22;11973;52.098;7.582;2022-12-17T02:09:36;-4.90;99.90
23591;DHT22;11973;52.098;7.582;2022-12-17T02:15:19;-4.90;99.90
23591;DHT22;11973;52.098;7.582;2022-12-17T02:18:11;-4.80;99.90
23591;DHT22;11973;52.098;7.582;2022-12-17T02:20:58;-4.80;99.90
23591;DHT22;11973;52.098;7.582;2022-12-17T02:27:22;-4.80;99.90
23591;DHT22;11973;52.098;7.582;2022-12-17T02:30:08;-4.80;99.90
23591;DHT22;11973;52.098;7.582;2022-12-17T02:32:53;-4.80;99.90
23591;DHT22;11973;52.098;7.582;2022-12-17T02:36:01;-4.80;99.90
23591;DHT22;11973;52.098;7.582;2022-12-17T02:38:47;-4.80;99.90
23591;DHT22;11973;52.098;7.582;2022-12-17T02:41:49;-4.70;99.90
23591;DHT22;11973;52.098;7.582;2022-12-17T02:44:54;-4.70;99.90
23591;DHT22;11973;52.098;7.582;2022-12-17T02:47:40;-4.70;99.90
23591;DHT22;11973;52.098;7.582;2022-12-17T02:50:25;-4.70;99.90
23591;DHT22;11973;52.098;7.582;2022-12-17T02:53:09;-4.70;99.90
23591;DHT22;11973;52.098;7.582;2022-12-17T02:55:53;-4.60;99.90
23591;DHT22;11973;52.098;7.582;2022-12-17T02:58:38;-4.60;99.90
23591;DHT22;11973;52.098;7.582;2022-12-17T03:01:33;-4.60;99.90
23591;DHT22;11973;52.098;7.582;2022-12-17T03:04:18;-4.50;99.90
23591;DHT22;11973;52.098;7.582;2022-12-17T03:07:05;-4.50;99.90
23591;DHT22;11973;52.098;7.582;2022-12-17T03:09:49;-4.50;99.90
23591;DHT22;11973;52.098;7.582;2022-12-17T03:12:39;-4.50;99.90
23591;DHT22;11973;52.098;7.582;2022-12-17T03:15:24;-4.40;99.90
23591;DHT22;11973;52.098;7.582;2022-12-17T03:18:08;-4.40;99.90
23591;DHT22;11973;52.098;7.582;2022-12-17T03:20:53;-4.40;99.90
23591;DHT22;11973;52.098;7.582;2022-12-17T03:23:37;-4.40;99.90
23591;DHT22;11973;52.098;7.582;2022-12-17T03:26:21;-4.30;99.90
23591;DHT22;11973;52.098;7.582;2022-12-17T03:29:06;-4.30;99.90
23591;DHT22;11973;52.098;7.582;2022-12-17T03:31:51;-4.30;99.90
23591;DHT22;11973;52.098;7.582;2022-12-17T03:34:35;-4.30;99.90
23591;DHT22;11973;52.098;7.582;2022-12-17T03:37:20;-4.20;99.90
23591;DHT22;11973;52.098;7.582;2022-12-17T03:40:05;-4.20;99.90
23591;DHT22;11973;52.098;7.582;2022-12-17T03:42:49;-4.20;99.90
23591;DHT22;11973;52.098;7.582;2022-12-17T03:45:33;-4.10;99.90
23591;DHT22;11973;52.098;7.582;2022-12-17T03:48:18;-4.10;99.90
23591;DHT22;11973;52.098;7.582;2022-12-17T03:51:02;-4.10;99.90
23591;DHT22;11973;52.098;7.582;2022-12-17T03:53:47;-4.10;99.90
23591;DHT22;11973;52.098;7.582;2022-12-17T03:56:31;-4.00;99.90
23591;DHT22;11973;52.098;7.582;2022-12-17T03:59:16;-4.00;99.90
23591;DHT22;11973;52.098;7.582;2022-12-17T04:02:00;-4.00;99.90
23591;DHT22;11973;52.098;7.582;2022-12-17T04:04:45;-4.00;99.90
23591;DHT22;11973;52.098;7.582;2022-12-17T04:07:29;-4.00;99.90
23591;DHT22;11973;52.098;7.582;2022-12-17T04:10:14;-3.90;99.90
23591;DHT22;11973;52.098;7.582;2022-12-17T04:12:58;-3.90;99.90
23591;DHT22;11973;52.098;7.582;2022-12-17T04:15:42;-3.90;99.90
23591;DHT22;11973;52.098;7.582;2022-12-17T04:18:27;-3.90;99.90
23591;DHT22;11973;52.098;7.582;2022-12-17T04:21:11;-3.90;99.90
23591;DHT22;11973;52.098;7.582;2022-12-17T04:23:55;-3.80;99.90
23591;DHT22;11973;52.098;7.582;2022-12-17T04:26:40;-3.80;99.90
23591;DHT22;11973;52.098;7.582;2022-12-17T04:29:24;-3.80;99.90
23591;DHT22;11973;52.098;7.582;2022-12-17T04:32:09;-3.80;99.90
23591;DHT22;11973;52.098;7.582;2022-12-17T04:34:53;-3.70;99.90
23591;DHT22;11973;52.098;7.582;2022-12-17T04:37:37;-3.70;99.90
23591;DHT22;11973;52.098;7.582;2022-12-17T04:40:21;-3.60;99.90
23591;DHT22;11973;52.098;7.582;2022-12-17T04:43:10;-3.70;99.90
23591;DHT22;11973;52.098;7.582;2022-12-17T04:45:55;-3.60;99.90
23591;DHT22;11973;52.098;7.582;2022-12-17T04:48:39;-3.60;99.90
23591;DHT22;11973;52.098;7.582;2022-12-17T04:51:25;-3.60;99.90
23591;DHT22;11973;52.098;7.582;2022-12-17T04:54:09;-3.60;99.90
23591;DHT22;11973;52.098;7.582;2022-12-17T04:56:53;-3.60;99.90
23591;DHT22;11973;52.098;7.582;2022-12-17T04:59:38;-3.60;99.90
23591;DHT22;11973;52.098;7.582;2022-12-17T05:02:22;-3.50;99.90
23591;DHT22;11973;52.098;7.582;2022-12-17T05:05:07;-3.50;99.90
23591;DHT22;11973;52.098;7.582;2022-12-17T05:07:54;-3.50;99.90
23591;DHT22;11973;52.098;7.582;2022-12-17T05:10:39;-3.40;99.90
23591;DHT22;11973;52.098;7.582;2022-12-17T05:13:23;-3.40;99.90
23591;DHT22;11973;52.098;7.582;2022-12-17T05:16:08;-3.40;99.90
23591;DHT22;11973;52.098;7.582;2022-12-17T05:18:52;-3.40;99.90
23591;DHT22;11973;52.098;7.582;2022-12-17T05:21:37;-3.40;99.90
23591;DHT22;11973;52.098;7.582;2022-12-17T05:24:21;-3.30;99.90
23591;DHT22;11973;52.098;7.582;2022-12-17T05:27:06;-3.30;99.90
23591;DHT22;11973;52.098;7.582;2022-12-17T05:29:50;-3.30;99.90
23591;DHT22;11973;52.098;7.582;2022-12-17T06:16:04;-3.00;99.90
23591;DHT22;11973;52.098;7.582;2022-12-17T06:18:48;-3.00;99.90
23591;DHT22;11973;52.098;7.582;2022-12-17T06:21:32;-3.00;99.90
23591;DHT22;11973;52.098;7.582;2022-12-17T06:24:17;-3.00;99.90
23591;DHT22;11973;52.098;7.582;2022-12-17T06:27:01;-3.00;99.90
23591;DHT22;11973;52.098;7.582;2022-12-17T06:29:45;-3.00;99.90
23591;DHT22;11973;52.098;7.582;2022-12-17T06:32:29;-3.00;99.90
23591;DHT22;11973;52.098;7.582;2022-12-17T06:35:13;-2.90;99.90
23591;DHT22;11973;52.098;7.582;2022-12-17T06:38:00;-2.90;99.90
23591;DHT22;11973;52.098;7.582;2022-12-17T06:40:45;-2.90;99.90
23591;DHT22;11973;52.098;7.582;2022-12-17T06:43:30;-2.90;99.90
23591;DHT22;11973;52.098;7.582;2022-12-17T06:46:14;-2.80;99.90
23591;DHT22;11973;52.098;7.582;2022-12-17T06:48:58;-2.90;99.90
23591;DHT22;11973;52.098;7.582;2022-12-17T06:51:43;-2.90;99.90
23591;DHT22;11973;52.098;7.582;2022-12-17T06:54:27;-2.90;99.90
23591;DHT22;11973;52.098;7.582;2022-12-17T06:57:12;-2.90;99.90
23591;DHT22;11973;52.098;7.582;2022-12-17T06:59:56;-2.90;99.90
23591;DHT22;11973;52.098;7.582;2022-12-17T07:02:40;-2.90;99.90
23591;DHT22;11973;52.098;7.582;2022-12-17T07:05:24;-3.00;99.90
23591;DHT22;11973;52.098;7.582;2022-12-17T07:08:08;-2.80;99.90
23591;DHT22;11973;52.098;7.582;2022-12-17T07:10:53;-2.80;99.90
23591;DHT22;11973;52.098;7.582;2022-12-17T07:13:37;-2.70;99.90
23591;DHT22;11973;52.098;7.582;2022-12-17T07:16:21;-2.80;99.90
23591;DHT22;11973;52.098;7.582;2022-12-17T07:19:06;-2.80;99.90
23591;DHT22;11973;52.098;7.582;2022-12-17T07:21:50;-2.80;99.90
23591;DHT22;11973;52.098;7.582;2022-12-17T07:24:35;-2.80;99.90
23591;DHT22;11973;52.098;7.582;2022-12-17T07:27:19;-2.80;99.90
23591;DHT22;11973;52.098;7.582;2022-12-17T07:30:04;-2.70;99.90
23591;DHT22;11973;52.098;7.582;2022-12-17T07:33:00;-2.80;99.90
23591;DHT22;11973;52.098;7.582;2022-12-17T07:35:44;-2.70;99.90
23591;DHT22;11973;52.098;7.582;2022-12-17T07:38:29;-2.70;99.90
23591;DHT22;11973;52.098;7.582;2022-12-17T07:41:13;-2.70;99.90
23591;DHT22;11973;52.098;7.582;2022-12-17T07:43:58;-2.70;99.90
23591;DHT22;11973;52.098;7.582;2022-12-17T07:46:42;-2.70;99.90
23591;DHT22;11973;52.098;7.582;2022-12-17T07:49:26;-2.70;99.90
23591;DHT22;11973;52.098;7.582;2022-12-17T07:52:10;-2.70;99.90
23591;DHT22;11973;52.098;7.582;2022-12-17T07:54:55;-2.70;99.90
23591;DHT22;11973;52.098;7.582;2022-12-17T07:57:39;-3.00;99.90
23591;DHT22;11973;52.098;7.582;2022-12-17T08:00:24;-2.60;99.90
23591;DHT22;11973;52.098;7.582;2022-12-17T08:03:08;-2.60;99.90
23591;DHT22;11973;52.098;7.582;2022-12-17T08:05:56;-2.60;99.90
23591;DHT22;11973;52.098;7.582;2022-12-17T08:08:41;-2.60;99.90
23591;DHT22;11973;52.098;7.582;2022-12-17T08:11:25;-2.60;99.90
23591;DHT22;11973;52.098;7.582;2022-12-17T08:14:09;-2.60;99.90
23591;DHT22;11973;52.098;7.582;2022-12-17T08:16:53;-2.50;99.90
23591;DHT22;11973;52.098;7.582;2022-12-17T08:19:38;-2.50;99.90
23591;DHT22;11973;52.098;7.582;2022-12-17T08:22:22;-2.50;99.90
23591;DHT22;11973;52.098;7.582;2022-12-17T08:25:07;-2.50;99.90
23591;DHT22;11973;52.098;7.582;2022-12-17T08:27:58;-2.50;99.90
23591;DHT22;11973;52.098;7.582;2022-12-17T08:30:46;-2.40;99.90
23591;DHT22;11973;52.098;7.582;2022-12-17T08:33:30;-2.40;99.90
23591;DHT22;11973;52.098;7.582;2022-12-17T08:36:15;-2.40;99.90
23591;DHT22;11973;52.098;7.582;2022-12-17T08:38:59;-2.40;99.90
23591;DHT22;11973;52.098;7.582;2022-12-17T08:41:46;-2.40;99.90
23591;DHT22;11973;52.098;7.582;2022-12-17T08:44:30;-2.30;99.90
23591;DHT22;11973;52.098;7.582;2022-12-17T08:47:15;-2.20;99.90
23591;DHT22;11973;52.098;7.582;2022-12-17T08:49:59;-2.30;99.90
23591;DHT22;11973;52.098;7.582;2022-12-17T08:52:43;-2.30;99.90
23591;DHT22;11973;52.098;7.582;2022-12-17T08:55:27;-2.30;99.90
23591;DHT22;11973;52.098;7.582;2022-12-17T08:58:25;-2.30;99.90
23591;DHT22;11973;52.098;7.582;2022-12-17T09:01:10;-2.30;99.90
23591;DHT22;11973;52.098;7.582;2022-12-17T09:03:54;-2.20;99.90
23591;DHT22;11973;52.098;7.582;2022-12-17T09:06:38;-2.20;99.90
23591;DHT22;11973;52.098;7.582;2022-12-17T09:09:23;-2.20;99.90
23591;DHT22;11973;52.098;7.582;2022-12-17T09:12:07;-2.10;99.90
23591;DHT22;11973;52.098;7.582;2022-12-17T09:14:51;-2.10;99.90
23591;DHT22;11973;52.098;7.582;2022-12-17T09:17:36;-2.10;99.90
23591;DHT22;11973;52.098;7.582;2022-12-17T09:20:20;-2.10;99.90
23591;DHT22;11973;52.098;7.582;2022-12-17T09:23:05;-2.00;99.90
23591;DHT22;11973;52.098;7.582;2022-12-17T09:25:53;-2.00;99.90
23591;DHT22;11973;52.098;7.582;2022-12-17T09:28:37;-2.00;99.90
23591;DHT22;11973;52.098;7.582;2022-12-17T09:31:21;-2.00;99.90
23591;DHT22;11973;52.098;7.582;2022-12-17T09:34:06;-1.90;99.90
23591;DHT22;11973;52.098;7.582;2022-12-17T09:36:50;-1.90;99.90
23591;DHT22;11973;52.098;7.582;2022-12-17T09:39:35;-1.90;99.90
23591;DHT22;11973;52.098;7.582;2022-12-17T09:48:23;-1.90;99.90
23591;DHT22;11973;52.098;7.582;2022-12-17T09:51:28;-1.90;99.90
23591;DHT22;11973;52.098;7.582;2022-12-17T09:54:40;-1.90;99.90
23591;DHT22;11973;52.098;7.582;2022-12-17T09:57:29;-1.80;99.90
23591;DHT22;11973;52.098;7.582;2022-12-17T10:03:16;-1.80;99.90
23591;DHT22;11973;52.098;7.582;2022-12-17T10:06:08;-1.80;99.90
23591;DHT22;11973;52.098;7.582;2022-12-17T10:08:57;-1.80;99.90
23591;DHT22;11973;52.098;7.582;2022-12-17T10:11:42;-1.70;99.90
23591;DHT22;11973;52.098;7.582;2022-12-17T10:14:27;-1.70;99.90
23591;DHT22;11973;52.098;7.582;2022-12-17T10:17:31;-1.70;99.90
23591;DHT22;11973;52.098;7.582;2022-12-17T10:20:37;-1.70;99.90
23591;DHT22;11973;52.098;7.582;2022-12-17T10:23:32;-1.70;99.90
23591;DHT22;11973;52.098;7.582;2022-12-17T10:26:22;-1.60;99.90
23591;DHT22;11973;52.098;7.582;2022-12-17T10:29:21;-1.60;99.90
23591;DHT22;11973;52.098;7.582;2022-12-17T10:37:52;-1.60;99.90
23591;DHT22;11973;52.098;7.582;2022-12-17T10:40:36;-1.60;99.90
23591;DHT22;11973;52.098;7.582;2022-12-17T10:46:06;-1.50;99.90
23591;DHT22;11973;52.098;7.582;2022-12-17T10:48:50;-1.50;99.90
23591;DHT22;11973;52.098;7.582;2022-12-17T10:51:36;-1.50;99.90
23591;DHT22;11973;52.098;7.582;2022-12-17T10:54:30;-1.50;99.90
23591;DHT22;11973;52.098;7.582;2022-12-17T10:57:35;-1.50;99.90
23591;DHT22;11973;52.098;7.582;2022-12-17T11:00:35;-1.50;99.90
23591;DHT22;11973;52.098;7.582;2022-12-17T11:03:28;-1.40;99.90
23591;DHT22;11973;52.098;7.582;2022-12-17T11:06:18;-1.40;99.90
23591;DHT22;11973;52.098;7.582;2022-12-17T11:09:13;-1.40;99.90
23591;DHT22;11973;52.098;7.582;2022-12-17T11:12:01;-1.30;99.90
23591;DHT22;11973;52.098;7.582;2022-12-17T11:14:51;-1.30;99.90
23591;DHT22;11973;52.098;7.582;2022-12-17T11:17:37;-1.30;99.90
23591;DHT22;11973;52.098;7.582;2022-12-17T11:20:27;-1.30;99.90
23591;DHT22;11973;52.098;7.582;2022-12-17T11:23:17;-1.30;99.90
23591;DHT22;11973;52.098;7.582;2022-12-17T11:26:09;-1.30;99.90
23591;DHT22;11973;52.098;7.582;2022-12-17T11:28:53;-1.20;99.90
23591;DHT22;11973;52.098;7.582;2022-12-17T11:32:02;-1.20;99.90
23591;DHT22;11973;52.098;7.582;2022-12-17T11:41:00;-1.20;99.90
23591;DHT22;11973;52.098;7.582;2022-12-17T11:50:12;-1.10;99.90
23591;DHT22;11973;52.098;7.582;2022-12-17T11:53:17;-1.10;99.90
23591;DHT22;11973;52.098;7.582;2022-12-17T11:59:32;-1.10;99.90
23591;DHT22;11973;52.098;7.582;2022-12-17T12:05:28;-1.10;99.90
23591;DHT22;11973;52.098;7.582;2022-12-17T12:08:33;-1.10;99.90
23591;DHT22;11973;52.098;7.582;2022-12-17T12:11:25;-1.10;99.90
23591;DHT22;11973;52.098;7.582;2022-12-17T12:17:37;-1.10;99.90
23591;DHT22;11973;52.098;7.582;2022-12-17T12:23:51;-1.10;99.90
23591;DHT22;11973;52.098;7.582;2022-12-17T12:26:50;-1.10;99.90
23591;DHT22;11973;52.098;7.582;2022-12-17T12:33:00;-1.00;99.90
23591;DHT22;11973;52.098;7.582;2022-12-17T12:35:46;-1.00;99.90
23591;DHT22;11973;52.098;7.582;2022-12-17T12:38:39;-1.00;99.90
23591;DHT22;11973;52.098;7.582;2022-12-17T12:47:46;-0.90;99.90
23591;DHT22;11973;52.098;7.582;2022-12-17T12:50:57;-0.90;99.90
23591;DHT22;11973;52.098;7.582;2022-12-17T12:53:43;-0.80;99.90
23591;DHT22;11973;52.098;7.582;2022-12-17T12:56:35;-0.80;99.90
23591;DHT22;11973;52.098;7.582;2022-12-17T12:59:28;-0.80;99.90
23591;DHT22;11973;52.098;7.582;2022-12-17T13:05:30;-0.70;99.90
23591;DHT22;11973;52.098;7.582;2022-12-17T13:10:47;-0.70;99.90
23591;DHT22;11973;52.098;7.582;2022-12-17T13:15:48;-0.70;99.90
23591;DHT22;11973;52.098;7.582;2022-12-17T13:18:35;-0.70;99.90
23591;DHT22;11973;52.098;7.582;2022-12-17T13:21:26;-0.70;99.90
23591;DHT22;11973;52.098;7.582;2022-12-17T13:24:09;-0.70;99.90
23591;DHT22;11973;52.098;7.582;2022-12-17T13:26:42;-0.70;99.90
23591;DHT22;11973;52.098;7.582;2022-12-17T13:29:44;-0.70;99.90
23591;DHT22;11973;52.098;7.582;2022-12-17T13:32:22;-0.70;99.90
23591;DHT22;11973;52.098;7.582;2022-12-17T13:37:56;-0.70;99.90
23591;DHT22;11973;52.098;7.582;2022-12-17T13:40:43;-0.80;99.90
23591;DHT22;11973;52.098;7.582;2022-12-17T13:43:19;-0.70;99.90
23591;DHT22;11973;52.098;7.582;2022-12-17T13:45:45;-0.70;99.90
23591;DHT22;11973;52.098;7.582;2022-12-17T13:48:23;-0.70;99.90
23591;DHT22;11973;52.098;7.582;2022-12-17T13:53:25;-0.80;99.90
23591;DHT22;11973;52.098;7.582;2022-12-17T13:55:53;-0.80;99.90
23591;DHT22;11973;52.098;7.582;2022-12-17T13:58:26;-0.80;99.90
23591;DHT22;11973;52.098;7.582;2022-12-17T14:01:09;-0.80;99.90
23591;DHT22;11973;52.098;7.582;2022-12-17T14:03:43;-0.80;99.90
23591;DHT22;11973;52.098;7.582;2022-12-17T14:06:13;-0.80;99.90
23591;DHT22;11973;52.098;7.582;2022-12-17T14:08:39;-0.80;99.90
23591;DHT22;11973;52.098;7.582;2022-12-17T14:11:06;-0.90;99.90
23591;DHT22;11973;52.098;7.582;2022-12-17T14:13:50;-0.90;99.90
23591;DHT22;11973;52.098;7.582;2022-12-17T14:16:18;-0.90;99.90
23591;DHT22;11973;52.098;7.582;2022-12-17T14:18:47;-0.90;99.90
23591;DHT22;11973;52.098;7.582;2022-12-17T14:21:14;-1.00;99.90
23591;DHT22;11973;52.098;7.582;2022-12-17T14:23:40;-1.00;99.90
23591;DHT22;11973;52.098;7.582;2022-12-17T14:26:11;-1.00;99.90
23591;DHT22;11973;52.098;7.582;2022-12-17T14:28:49;-1.00;99.90
23591;DHT22;11973;52.098;7.582;2022-12-17T14:31:22;-1.00;99.90
23591;DHT22;11973;52.098;7.582;2022-12-17T14:34:17;-1.10;99.90
23591;DHT22;11973;52.098;7.582;2022-12-17T14:36:43;-1.10;99.90
23591;DHT22;11973;52.098;7.582;2022-12-17T14:39:18;-1.10;99.90
23591;DHT22;11973;52.098;7.582;2022-12-17T14:41:45;-1.10;99.90
23591;DHT22;11973;52.098;7.582;2022-12-17T14:44:30;-1.10;99.90
23591;DHT22;11973;52.098;7.582;2022-12-17T14:52:51;-1.20;99.90
23591;DHT22;11973;52.098;7.582;2022-12-17T14:57:51;-1.30;99.90
23591;DHT22;11973;52.098;7.582;2022-12-17T15:00:18;-1.30;99.90
23591;DHT22;11973;52.098;7.582;2022-12-17T15:02:50;-1.30;99.90
23591;DHT22;11973;52.098;7.582;2022-12-17T15:05:17;-1.40;99.90
23591;DHT22;11973;52.098;7.582;2022-12-17T15:07:43;-1.40;99.90
23591;DHT22;11973;52.098;7.582;2022-12-17T15:10:15;-1.40;99.90
23591;DHT22;11973;52.098;7.582;2022-12-17T15:12:42;-1.50;99.90
23591;DHT22;11973;52.098;7.582;2022-12-17T15:15:12;-1.50;99.90
23591;DHT22;11973;52.098;7.582;2022-12-17T15:17:38;-1.50;99.90
23591;DHT22;11973;52.098;7.582;2022-12-17T15:20:04;-1.60;99.90
23591;DHT22;11973;52.098;7.582;2022-12-17T15:22:30;-1.60;99.90
23591;DHT22;11973;52.098;7.582;2022-12-17T15:24:55;-1.70;99.90
23591;DHT22;11973;52.098;7.582;2022-12-17T15:27:21;-1.70;99.90
23591;DHT22;11973;52.098;7.582;2022-12-17T15:29:47;-1.70;99.90
23591;DHT22;11973;52.098;7.582;2022-12-17T15:32:21;-1.70;99.90
23591;DHT22;11973;52.098;7.582;2022-12-17T15:34:48;-1.80;99.90
23591;DHT22;11973;52.098;7.582;2022-12-17T15:37:15;-1.80;99.90
23591;DHT22;11973;52.098;7.582;2022-12-17T15:39:42;-1.90;99.90
23591;DHT22;11973;52.098;7.582;2022-12-17T15:42:10;-1.90;99.90
23591;DHT22;11973;52.098;7.582;2022-12-17T15:44:55;-1.90;99.90
23591;DHT22;11973;52.098;7.582;2022-12-17T15:47:21;-1.90;99.90
23591;DHT22;11973;52.098;7.582;2022-12-17T15:49:46;-2.00;99.90
23591;DHT22;11973;52.098;7.582;2022-12-17T15:52:12;-2.00;99.90
23591;DHT22;11973;52.098;7.582;2022-12-17T15:54:41;-2.00;99.90
23591;DHT22;11973;52.098;7.582;2022-12-17T15:57:07;-2.00;99.90
23591;DHT22;11973;52.098;7.582;2022-12-17T15:59:33;-2.00;99.90
23591;DHT22;11973;52.098;7.582;2022-12-17T16:01:59;-2.00;99.90
23591;DHT22;11973;52.098;7.582;2022-12-17T16:04:24;-2.00;99.90
23591;DHT22;11973;52.098;7.582;2022-12-17T16:06:50;-2.00;99.90
23591;DHT22;11973;52.098;7.582;2022-12-17T16:09:16;-2.10;99.90
23591;DHT22;11973;52.098;7.582;2022-12-17T16:11:42;-2.00;99.90
23591;DHT22;11973;52.098;7.582;2022-12-17T16:14:08;-2.10;99.90
23591;DHT22;11973;52.098;7.582;2022-12-17T16:16:33;-2.10;99.90
23591;DHT22;11973;52.098;7.582;2022-12-17T16:18:59;-2.10;99.90
23591;DHT22;11973;52.098;7.582;2022-12-17T16:21:27;-2.10;99.90
23591;DHT22;11973;52.098;7.582;2022-12-17T16:23:53;-2.10;99.90
23591;DHT22;11973;52.098;7.582;2022-12-17T16:26:18;-2.10;99.90
23591;DHT22;11973;52.098;7.582;2022-12-17T16:28:44;-2.10;99.90
23591;DHT22;11973;52.098;7.582;2022-12-17T16:31:12;-2.10;99.90
23591;DHT22;11973;52.098;7.582;2022-12-17T16:33:40;-2.10;99.90
23591;DHT22;11973;52.098;7.582;2022-12-17T16:36:09;-2.10;99.90
23591;DHT22;11973;52.098;7.582;2022-12-17T16:38:42;-2.20;99.90
23591;DHT22;11973;52.098;7.582;2022-12-17T16:41:08;-2.20;99.90
23591;DHT22;11973;52.098;7.582;2022-12-17T16:43:34;-2.00;99.90
23591;DHT22;11973;52.098;7.582;2022-12-17T16:46:00;-2.20;99.90
23591;DHT22;11973;52.098;7.582;2022-12-17T16:48:26;-2.30;99.90
23591;DHT22;11973;52.098;7.582;2022-12-17T16:50:52;-2.30;99.90
23591;DHT22;11973;52.098;7.582;2022-12-17T16:53:18;-2.30;99.90
23591;DHT22;11973;52.098;7.582;2022-12-17T16:55:48;-2.30;99.90
23591;DHT22;11973;52.098;7.582;2022-12-17T16:58:16;-2.30;99.90
23591;DHT22;11973;52.098;7.582;2022-12-17T17:00:42;-2.30;99.90
23591;DHT22;11973;52.098;7.582;2022-12-17T17:03:08;-2.30;99.90
23591;DHT22;11973;52.098;7.582;2022-12-17T17:05:36;-2.30;99.90
23591;DHT22;11973;52.098;7.582;2022-12-17T17:08:03;-2.30;99.90
23591;DHT22;11973;52.098;7.582;2022-12-17T17:10:29;-2.40;99.90
23591;DHT22;11973;52.098;7.582;2022-12-17T17:12:55;-2.30;99.90
23591;DHT22;11973;52.098;7.582;2022-12-17T17:15:21;-2.40;99.90
23591;DHT22;11973;52.098;7.582;2022-12-17T17:17:48;-2.40;99.90
23591;DHT22;11973;52.098;7.582;2022-12-17T17:20:14;-2.40;99.90
23591;DHT22;11973;52.098;7.582;2022-12-17T17:22:40;-2.40;99.90
23591;DHT22;11973;52.098;7.582;2022-12-17T17:25:06;-2.40;99.90
23591;DHT22;11973;52.098;7.582;2022-12-17T17:27:32;-2.40;99.90
23591;DHT22;11973;52.098;7.582;2022-12-17T17:29:58;-2.40;99.90
23591;DHT22;11973;52.098;7.582;2022-12-17T17:32:24;-2.40;99.90
23591;DHT22;11973;52.098;7.582;2022-12-17T17:34:50;-2.40;99.90
23591;DHT22;11973;52.098;7.582;2022-12-17T17:37:16;-2.40;99.90
23591;DHT22;11973;52.098;7.582;2022-12-17T17:39:43;-2.40;99.90
23591;DHT22;11973;52.098;7.582;2022-12-17T17:42:09;-2.40;99.90
23591;DHT22;11973;52.098;7.582;2022-12-17T17:44:35;-2.40;99.90
23591;DHT22;11973;52.098;7.582;2022-12-17T17:47:03;-2.40;99.90
23591;DHT22;11973;52.098;7.582;2022-12-17T17:49:28;-2.20;99.90
23591;DHT22;11973;52.098;7.582;2022-12-17T17:51:54;-2.50;99.90
23591;DHT22;11973;52.098;7.582;2022-12-17T17:54:20;-2.50;99.90
23591;DHT22;11973;52.098;7.582;2022-12-17T17:56:46;-2.50;99.90
23591;DHT22;11973;52.098;7.582;2022-12-17T17:59:13;-2.50;99.90
23591;DHT22;11973;52.098;7.582;2022-12-17T18:01:49;-2.50;99.90
23591;DHT22;11973;52.098;7.582;2022-12-17T18:04:17;-2.50;99.90
23591;DHT22;11973;52.098;7.582;2022-12-17T18:06:44;-2.50;99.90
23591;DHT22;11973;52.098;7.582;2022-12-17T18:09:11;-2.50;99.90
23591;DHT22;11973;52.098;7.582;2022-12-17T18:11:39;-2.50;99.90
23591;DHT22;11973;52.098;7.582;2022-12-17T18:14:06;-2.50;99.90
23591;DHT22;11973;52.098;7.582;2022-12-17T18:16:40;-2.50;99.90
23591;DHT22;11973;52.098;7.582;2022-12-17T18:19:13;-2.50;99.90
23591;DHT22;11973;52.098;7.582;2022-12-17T18:21:41;-2.50;99.90
23591;DHT22;11973;52.098;7.582;2022-12-17T18:24:11;-2.60;99.90
23591;DHT22;11973;52.098;7.582;2022-12-17T18:26:38;-2.60;99.90
23591;DHT22;11973;52.098;7.582;2022-12-17T18:29:22;-2.60;99.90
23591;DHT22;11973;52.098;7.582;2022-12-17T18:31:48;-2.60;99.90
23591;DHT22;11973;52.098;7.582;2022-12-17T18:34:16;-2.60;99.90
23591;DHT22;11973;52.098;7.582;2022-12-17T18:36:43;-2.60;99.90
23591;DHT22;11973;52.098;7.582;2022-12-17T18:39:13;-2.60;99.90
23591;DHT22;11973;52.098;7.582;2022-12-17T18:41:53;-2.60;99.90
23591;DHT22;11973;52.098;7.582;2022-12-17T18:44:41;-2.70;99.90
23591;DHT22;11973;52.098;7.582;2022-12-17T18:47:15;-2.70;99.90
23591;DHT22;11973;52.098;7.582;2022-12-17T18:49:45;-2.70;99.90
23591;DHT22;11973;52.098;7.582;2022-12-17T18:52:16;-2.70;99.90
23591;DHT22;11973;52.098;7.582;2022-12-17T18:54:44;-2.70;99.90
23591;DHT22;11973;52.098;7.582;2022-12-17T18:57:16;-2.70;99.90
23591;DHT22;11973;52.098;7.582;2022-12-17T18:59:48;-2.80;99.90
23591;DHT22;11973;52.098;7.582;2022-12-17T19:02:21;-2.80;99.90